Time;durP1;ratioP1;P1;durP2;ratioP2;P2;SDS_P1;SDS_P2;PMS_P1;PMS_P2;Temp;Humidity;BMP_temperature;BMP_pressure;BME280_temperature;BME280_humidity;BME280_pressure;Samples;Min_cycle;Max_cycle;Signal;HPM_P1;HPM_P2
2023/06/03 00:01:23;;;;;;;17.40;9.52;;;;;;;16.35;72.97;98976.72;5031995;28;20017;-76
2023/06/03 00:03:49;;;;;;;17.55;9.65;;;;;;;16.50;73.11;98977.69;5032149;28;20045;-76
2023/06/03 00:06:14;;;;;;;11.90;8.75;;;;;;;16.70;72.85;98970.63;5032133;28;20519;-76
2023/06/03 00:08:42;;;;;;;19.63;10.15;;;;;;;16.55;73.72;98978.16;5031898;28;20099;-76
2023/06/03 00:11:08;;;;;;;12.13;9.40;;;;;;;16.67;73.29;98976.25;5029625;28;20029;-76
2023/06/03 00:13:33;;;;;;;18.65;9.55;;;;;;;16.35;74.71;98976.72;5030675;28;20025;-76
2023/06/03 00:15:59;;;;;;;12.75;9.65;;;;;;;16.54;73.81;98982.19;5031896;28;20033;-76
2023/06/03 00:18:26;;;;;;;13.23;9.55;;;;;;;16.22;75.11;98990.28;5031816;28;20100;-76
2023/06/03 00:20:52;;;;;;;12.13;8.73;;;;;;;16.08;75.99;98988.09;5031799;28;20096;-76
2023/06/03 00:23:18;;;;;;;12.95;9.30;;;;;;;16.21;75.74;98988.69;5031722;28;20025;-76
2023/06/03 00:25:44;;;;;;;11.65;9.50;;;;;;;16.22;75.89;98991.09;5031759;28;20385;-76
2023/06/03 00:28:10;;;;;;;13.45;9.35;;;;;;;16.45;75.21;98998.59;5030469;28;20040;-76
2023/06/03 00:30:35;;;;;;;17.02;9.35;;;;;;;16.52;74.87;99007.16;5031639;28;20028;-76
2023/06/03 00:33:01;;;;;;;19.75;9.05;;;;;;;16.62;73.87;99005.63;5031446;28;20094;-76
2023/06/03 00:35:27;;;;;;;15.18;9.80;;;;;;;16.59;72.52;99020.53;5031785;28;20025;-76
2023/06/03 00:37:54;;;;;;;13.10;8.73;;;;;;;16.78;71.65;99019.53;5031602;28;20519;-76
2023/06/03 00:40:20;;;;;;;13.20;8.68;;;;;;;16.81;71.34;99017.94;5030277;28;20021;-76
2023/06/03 00:42:45;;;;;;;10.30;7.78;;;;;;;17.05;70.54;99016.56;5031499;28;20484;-76
2023/06/03 00:45:11;;;;;;;17.55;8.40;;;;;;;17.31;69.74;99013.94;5030521;28;20026;-76
2023/06/03 00:47:38;;;;;;;11.00;8.35;;;;;;;17.23;69.43;99011.06;5029650;28;20029;-76
2023/06/03 00:50:05;;;;;;;16.25;8.48;;;;;;;17.38;68.44;99014.03;5018465;28;20153;-76
2023/06/03 00:52:31;;;;;;;8.20;7.30;;;;;;;17.49;68.20;99017.69;5029871;28;20049;-76
2023/06/03 00:54:57;;;;;;;8.45;6.78;;;;;;;17.70;67.54;99012.59;5020290;28;20062;-76
2023/06/03 00:57:23;;;;;;;10.93;7.88;;;;;;;17.63;67.60;99019.03;5011426;28;20093;-76
2023/06/03 00:59:48;;;;;;;14.02;7.38;;;;;;;17.71;67.00;99002.91;5011460;28;20014;-76
2023/06/03 01:02:14;;;;;;;12.65;7.78;;;;;;;17.35;67.27;99000.66;5014458;28;20083;-76
2023/06/03 01:04:45;;;;;;;10.13;7.85;;;;;;;17.36;67.93;98999.44;5031209;28;20021;-76
2023/06/03 01:07:36;;;;;;;24.60;7.78;;;;;;;17.53;66.89;98992.28;5031100;28;20028;-76
2023/06/03 01:10:43;;;;;;;14.05;7.20;;;;;;;17.25;67.49;99000.19;5031158;28;20412;-76
2023/06/03 01:13:34;;;;;;;12.10;7.78;;;;;;;17.57;66.80;98986.66;5031090;28;20037;-76
2023/06/03 01:16:04;;;;;;;8.55;7.25;;;;;;;17.80;66.51;98987.19;5031119;28;20409;-76
2023/06/03 01:18:31;;;;;;;10.13;6.47;;;;;;;17.74;65.29;98991.63;5029633;28;20025;-76
2023/06/03 01:21:00;;;;;;;10.27;7.25;;;;;;;17.85;65.83;98990.84;5028859;28;20432;-76
2023/06/03 01:23:33;;;;;;;15.75;7.05;;;;;;;17.86;66.57;98989.63;5031044;28;20025;-77
2023/06/03 01:26:04;;;;;;;13.48;6.30;;;;;;;18.06;64.93;98982.50;5030915;28;20029;-77
2023/06/03 01:28:30;;;;;;;8.98;7.13;;;;;;;17.95;65.42;98990.09;5030902;28;20026;-76
2023/06/03 01:31:01;;;;;;;12.18;7.80;;;;;;;17.70;66.38;98982.28;5029693;28;20087;-76
2023/06/03 01:33:28;;;;;;;10.82;7.80;;;;;;;17.38;66.88;98989.38;5030876;28;20079;-76
2023/06/03 01:35:56;;;;;;;10.45;7.05;;;;;;;17.70;66.09;98985.13;5031009;28;20026;-76
2023/06/03 01:38:22;;;;;;;10.00;6.75;;;;;;;17.88;65.74;98978.75;5028402;28;20075;-76
2023/06/03 01:40:48;;;;;;;14.32;7.40;;;;;;;18.00;64.75;98981.25;5029646;28;20022;-76
2023/06/03 01:43:14;;;;;;;14.20;7.15;;;;;;;17.74;65.47;98985.16;5030818;28;20455;-76
2023/06/03 01:45:39;;;;;;;14.02;7.70;;;;;;;17.54;65.55;98985.44;5030933;28;20413;-76
2023/06/03 01:48:05;;;;;;;15.40;7.53;;;;;;;17.78;65.38;98981.13;5027547;28;20033;-76
2023/06/03 01:50:30;;;;;;;14.10;7.40;;;;;;;17.73;65.18;98989.97;5019649;28;20024;-76
2023/06/03 01:52:56;;;;;;;9.65;6.78;;;;;;;17.87;65.34;98980.75;5030612;28;20538;-76
2023/06/03 01:55:21;;;;;;;10.18;7.82;;;;;;;17.78;65.36;98991.63;5025676;28;20025;-76
2023/06/03 01:57:47;;;;;;;9.43;6.95;;;;;;;17.63;65.92;98980.25;5031446;28;20558;-76
2023/06/03 02:00:13;;;;;;;12.73;7.28;;;;;;;17.74;65.80;98982.31;5034345;28;20049;-76
2023/06/03 02:02:39;;;;;;;10.73;7.53;;;;;;;17.65;66.29;98988.34;5034333;28;20101;-76
2023/06/03 02:05:05;;;;;;;9.98;7.63;;;;;;;17.73;65.89;98986.34;5034337;28;20227;-76
2023/06/03 02:07:30;;;;;;;10.40;7.85;;;;;;;17.63;66.26;98987.94;5034124;28;20117;-76
2023/06/03 02:09:57;;;;;;;11.73;6.70;;;;;;;17.56;66.49;98983.03;5034199;28;20374;-76
2023/06/03 02:12:23;;;;;;;13.07;7.60;;;;;;;17.70;66.26;98973.81;5033070;28;20021;-76
2023/06/03 02:14:53;;;;;;;8.45;7.50;;;;;;;17.77;66.17;98990.81;5034132;28;20025;-76
2023/06/03 02:17:20;;;;;;;;;;;;;;;17.80;65.73;98970.22;5034777;28;20017;-76
2023/06/03 02:19:46;;;;;;;11.10;8.20;;;;;;;17.51;66.41;98983.41;5032728;28;19913;-76
2023/06/03 02:22:13;;;;;;;10.75;6.97;;;;;;;17.49;66.73;98986.59;5034079;28;20564;-76
2023/06/03 02:24:38;;;;;;;12.95;7.53;;;;;;;17.25;67.14;98980.41;5034006;28;20029;-76
2023/06/03 02:27:04;;;;;;;15.93;7.57;;;;;;;16.77;69.12;98983.19;5034095;28;20070;-76
2023/06/03 02:29:31;;;;;;;15.10;8.05;;;;;;;16.92;68.87;98990.59;5033797;28;20018;-76
2023/06/03 02:31:58;;;;;;;18.83;8.00;;;;;;;16.86;69.08;98994.19;5032542;28;20461;-76
2023/06/03 02:34:24;;;;;;;13.55;9.25;;;;;;;16.67;70.01;98996.84;5032479;28;20095;-76
2023/06/03 02:36:50;;;;;;;16.77;9.35;;;;;;;16.10;72.01;98985.72;5033797;28;20017;-76
2023/06/03 02:39:16;;;;;;;15.52;8.98;;;;;;;15.81;73.40;98994.63;5033533;28;20029;-76
2023/06/03 02:41:43;;;;;;;12.90;9.02;;;;;;;15.71;74.19;98995.28;5033705;28;20029;-76
2023/06/03 02:44:08;;;;;;;18.92;9.38;;;;;;;16.03;73.52;99000.53;5032091;28;20034;-76
2023/06/03 02:46:34;;;;;;;20.55;9.38;;;;;;;16.40;71.83;98998.97;5033602;28;20048;-76
2023/06/03 02:49:04;;;;;;;15.45;9.82;;;;;;;16.39;70.91;99005.81;5033442;28;20025;-76
2023/06/03 02:51:30;;;;;;;11.15;8.43;;;;;;;16.32;71.42;99003.72;5033412;28;20049;-76
2023/06/03 02:53:55;;;;;;;12.13;8.35;;;;;;;16.54;70.45;99006.78;5033491;28;20060;-76
2023/06/03 02:56:22;;;;;;;11.23;8.65;;;;;;;16.62;70.45;99011.28;5033378;28;20043;-76
2023/06/03 02:58:51;;;;;;;13.45;8.43;;;;;;;16.84;69.87;99012.34;5033253;28;20155;-76
2023/06/03 03:01:20;;;;;;;15.10;9.63;;;;;;;16.74;69.47;99007.38;5032284;28;20045;-76
2023/06/03 03:03:46;;;;;;;16.00;11.50;;;;;;;16.60;69.55;99019.34;5032358;28;20032;-76
2023/06/03 03:06:14;;;;;;;28.25;13.18;;;;;;;16.87;69.17;99012.75;5031984;28;20436;-76
2023/06/03 03:08:40;;;;;;;29.50;15.57;;;;;;;16.92;69.12;99016.03;5033386;28;20022;-76
2023/06/03 03:11:06;;;;;;;28.00;14.75;;;;;;;17.04;69.23;99005.66;5032543;28;20050;-76
2023/06/03 03:13:31;;;;;;;26.48;15.13;;;;;;;17.10;68.41;99021.03;5027496;28;20463;-76
2023/06/03 03:15:57;;;;;;;24.13;14.32;;;;;;;16.74;69.06;99023.50;5027623;28;20025;-76
2023/06/03 03:18:22;;;;;;;26.13;15.18;;;;;;;16.68;68.43;99029.50;5033180;28;20029;-76
2023/06/03 03:20:48;;;;;;;27.77;14.57;;;;;;;16.56;69.30;99032.63;5031674;28;20021;-76
2023/06/03 03:23:13;;;;;;;23.27;13.73;;;;;;;16.75;68.95;99025.94;5033112;28;20026;-76
2023/06/03 03:25:40;;;;;;;26.70;9.52;;;;;;;16.86;68.02;99026.03;5031637;28;20404;-76
2023/06/03 03:28:06;;;;;;;19.30;8.60;;;;;;;16.77;68.38;99028.38;5031721;28;20049;-76
2023/06/03 03:30:32;;;;;;;14.07;8.40;;;;;;;16.30;68.89;99025.06;5032901;28;20022;-76
2023/06/03 03:32:59;;;;;;;14.13;8.88;;;;;;;16.53;68.76;99041.84;5019586;28;20052;-75
2023/06/03 03:35:25;;;;;;;16.80;8.48;;;;;;;16.67;68.55;99036.38;5029999;28;20028;-76
2023/06/03 03:38:00;;;;;;;23.85;10.23;;;;;;;16.78;68.18;99038.50;5027207;28;20026;-77
2023/06/03 03:40:26;;;;;;;17.90;9.77;;;;;;;16.95;68.17;99031.38;5012626;28;20492;-77
2023/06/03 03:42:53;;;;;;;19.30;8.75;;;;;;;16.97;67.78;99041.09;5011560;28;20034;-78
2023/06/03 03:45:21;;;;;;;18.80;8.35;;;;;;;17.06;67.93;99040.00;5012804;28;20044;-79
2023/06/03 03:47:51;;;;;;;13.80;9.18;;;;;;;16.62;69.25;99042.34;5025927;28;20558;-79
2023/06/03 03:50:36;;;;;;;12.02;9.48;;;;;;;16.72;69.26;99048.50;5030912;28;20017;-78
2023/06/03 03:53:04;;;;;;;12.68;9.52;;;;;;;16.47;70.86;99047.03;5032180;28;20054;-80
2023/06/03 03:55:30;;;;;;;23.67;9.98;;;;;;;16.75;70.26;99056.19;5029545;28;20021;-79
2023/06/03 03:57:56;;;;;;;16.60;9.15;;;;;;;16.77;70.30;99053.78;5021073;28;20065;-79
2023/06/03 04:00:22;;;;;;;13.55;9.30;;;;;;;16.88;69.92;99057.53;5010708;28;20029;-78
2023/06/03 04:02:53;;;;;;;9.88;7.88;;;;;;;16.92;69.79;99049.09;5024772;28;20029;-78
2023/06/03 04:05:23;;;;;;;20.13;9.40;;;;;;;17.10;69.52;99049.31;5029820;28;20025;-82
2023/06/03 04:07:49;;;;;;;14.57;9.23;;;;;;;17.19;69.37;99058.25;5030945;28;20044;-81
2023/06/03 04:10:15;;;;;;;18.40;8.90;;;;;;;17.20;69.19;99056.25;5031892;28;20490;-79
2023/06/03 04:12:40;;;;;;;26.05;9.75;;;;;;;17.28;69.67;99059.97;5032094;28;20079;-79
2023/06/03 04:15:08;;;;;;;14.60;8.82;;;;;;;17.39;69.15;99056.00;5031925;28;20025;-79
2023/06/03 04:17:37;;;;;;;15.07;8.23;;;;;;;17.39;68.87;99055.22;5025931;28;20088;-80
2023/06/03 04:20:09;;;;;;;10.68;8.02;;;;;;;17.45;68.67;99052.84;5021848;28;20017;-80
2023/06/03 04:22:35;;;;;;;22.00;8.93;;;;;;;17.54;68.17;99048.44;5029709;28;20471;-80
2023/06/03 04:25:11;;;;;;;17.75;7.53;;;;;;;17.66;68.00;99058.63;5030716;28;20036;-81
2023/06/03 04:27:36;;;;;;;14.07;8.02;;;;;;;17.70;67.66;99058.66;5031994;28;20029;-79
2023/06/03 04:30:04;;;;;;;18.17;8.82;;;;;;;17.50;67.62;99066.59;5031909;28;20025;-79
2023/06/03 04:32:29;;;;;;;12.85;8.35;;;;;;;17.45;68.49;99069.78;5029472;28;20022;-78
2023/06/03 04:34:55;;;;;;;16.50;8.07;;;;;;;17.64;67.78;99061.03;5028709;28;20032;-77
2023/06/03 04:37:21;;;;;;;1017.83;116.50;;;;;;;17.85;65.93;99061.56;5018659;28;20033;-77
2023/06/03 04:39:51;;;;;;;165.73;24.52;;;;;;;17.86;65.95;99066.00;5030986;28;20412;-77
2023/06/03 04:42:17;;;;;;;355.42;48.95;;;;;;;18.05;65.43;99062.13;5024932;28;20036;-77
2023/06/03 04:44:43;;;;;;;41.38;12.45;;;;;;;18.15;65.48;99061.34;5010346;28;20171;-78
2023/06/03 04:47:11;;;;;;;264.38;28.50;;;;;;;18.23;65.01;99057.34;5010267;28;20025;-78
2023/06/03 04:49:40;;;;;;;34.80;10.80;;;;;;;18.29;64.74;99060.63;5027637;28;20018;-76
2023/06/03 04:55:17;;;;;;;9.55;5.80;;;;;;;18.23;64.58;99057.34;5397364;22;20056;-83
2023/06/03 04:57:47;;;;;;;19.40;7.05;;;;;;;18.29;65.18;99052.13;5036928;28;20033;-84
2023/06/03 05:00:16;;;;;;;13.07;7.78;;;;;;;18.31;64.79;99052.53;5041978;28;20040;-84
2023/06/03 05:02:44;;;;;;;14.27;7.60;;;;;;;18.47;65.52;99059.91;5030292;28;20384;-83
2023/06/03 05:05:10;;;;;;;13.93;7.35;;;;;;;18.64;65.00;99061.97;5029561;28;20483;-84
2023/06/03 05:07:37;;;;;;;8.32;6.75;;;;;;;18.56;64.80;99065.97;5030130;28;20025;-83
2023/06/03 05:10:04;;;;;;;14.00;6.25;;;;;;;18.84;64.36;99061.63;5031251;28;20113;-83
2023/06/03 05:12:30;;;;;;;11.25;6.93;;;;;;;18.83;62.21;99070.50;5031227;28;20036;-84
2023/06/03 05:14:55;;;;;;;10.35;7.10;;;;;;;18.76;63.84;99071.31;5046662;28;20022;-83
2023/06/03 05:17:21;;;;;;;8.82;6.45;;;;;;;18.97;62.54;99058.41;5029601;28;20025;-83
2023/06/03 05:19:46;;;;;;;12.80;6.03;;;;;;;19.15;61.43;99070.59;5044488;28;20063;-84
2023/06/03 05:22:12;;;;;;;14.68;6.30;;;;;;;19.28;59.66;99065.34;5029842;28;20033;-83
2023/06/03 05:24:37;;;;;;;11.40;7.10;;;;;;;19.41;59.89;99054.38;5041100;28;20024;-84
2023/06/03 05:27:03;;;;;;;10.52;7.65;;;;;;;19.54;59.71;99066.13;5051024;28;20025;-83
2023/06/03 05:29:29;;;;;;;12.77;6.70;;;;;;;19.64;58.77;99070.19;5049671;28;20553;-84
2023/06/03 05:31:54;;;;;;;6.90;6.18;;;;;;;19.61;57.96;99068.16;5050856;28;20025;-83
2023/06/03 05:34:20;;;;;;;8.10;6.13;;;;;;;19.68;59.20;99087.19;5053232;28;20021;-84
2023/06/03 05:36:45;;;;;;;11.80;6.45;;;;;;;19.85;58.68;99083.53;5050191;28;20499;-83
2023/06/03 05:39:12;;;;;;;13.40;7.47;;;;;;;20.15;58.32;99079.44;5033713;28;20033;-84
2023/06/03 05:41:37;;;;;;;11.93;6.60;;;;;;;20.19;57.86;99073.75;5033587;28;20025;-84
2023/06/03 05:44:02;;;;;;;15.93;7.22;;;;;;;19.81;58.81;99076.25;5033723;28;20603;-83
2023/06/03 05:46:28;;;;;;;20.05;7.60;;;;;;;20.09;59.16;99081.09;5034997;28;20410;-83
2023/06/03 05:48:53;;;;;;;15.07;8.02;;;;;;;20.09;58.63;99085.94;5047738;28;20021;-83
2023/06/03 05:51:19;;;;;;;10.75;6.90;;;;;;;20.06;58.53;99079.88;5053200;28;20028;-83
2023/06/03 05:53:45;;;;;;;10.32;6.35;;;;;;;20.40;58.71;99087.06;5054689;28;20025;-83
2023/06/03 05:56:11;;;;;;;7.65;6.85;;;;;;;20.42;58.26;99083.81;5036172;28;20426;-83
2023/06/03 05:58:38;;;;;;;8.68;6.53;;;;;;;20.32;58.02;99074.09;5036664;28;20025;-83
2023/06/03 06:01:03;;;;;;;10.60;6.90;;;;;;;20.64;57.69;99089.41;5036596;28;20507;-84
2023/06/03 06:03:29;;;;;;;20.13;7.75;;;;;;;20.65;57.42;99074.75;5036487;28;20025;-84
2023/06/03 06:05:55;;;;;;;10.20;7.40;;;;;;;21.06;56.95;99075.38;5036559;28;20029;-83
2023/06/03 06:08:21;;;;;;;11.25;6.78;;;;;;;21.39;55.52;99073.91;5035297;28;20060;-83
2023/06/03 06:10:46;;;;;;;10.43;6.57;;;;;;;21.44;54.69;99062.06;5034619;28;20052;-83
2023/06/03 06:13:12;;;;;;;14.52;7.07;;;;;;;21.54;54.85;99080.31;5024137;28;20084;-83
2023/06/03 06:15:37;;;;;;;10.25;6.13;;;;;;;21.66;53.94;99081.84;5014659;28;20029;-83
2023/06/03 06:18:03;;;;;;;14.50;7.07;;;;;;;21.65;55.08;99076.53;5032797;28;20025;-83
2023/06/03 06:20:28;;;;;;;10.48;6.53;;;;;;;21.68;54.86;99072.88;5014869;28;20063;-83
2023/06/03 06:22:54;;;;;;;14.98;7.03;;;;;;;21.96;53.52;99071.81;5015440;28;20032;-85
2023/06/03 06:25:20;;;;;;;10.93;7.38;;;;;;;21.95;53.88;99069.38;5033167;28;20024;-85
2023/06/03 06:27:46;;;;;;;10.85;6.20;;;;;;;22.18;52.96;99073.59;5036345;28;20134;-85
2023/06/03 06:30:14;;;;;;;11.05;7.30;;;;;;;21.95;53.07;99073.00;5036303;28;20039;-85
2023/06/03 06:33:06;;;;;;;12.73;6.40;;;;;;;22.04;53.49;99080.25;5054289;28;20021;-84
2023/06/03 06:35:32;;;;;;;8.57;6.50;;;;;;;22.18;53.39;99079.28;5049084;28;20575;-85
2023/06/03 06:37:58;;;;;;;10.43;6.70;;;;;;;22.19;52.42;99067.47;5036246;28;20120;-85
2023/06/03 06:40:29;;;;;;;14.43;6.68;;;;;;;22.54;53.19;99064.63;5032927;28;20021;-84
2023/06/03 06:42:55;;;;;;;12.70;6.97;;;;;;;22.86;51.40;99069.06;5032166;28;20033;-85
2023/06/03 06:45:30;;;;;;;11.07;6.32;;;;;;;22.89;51.14;99045.44;5044925;28;20025;-84
2023/06/03 06:48:07;;;;;;;14.98;6.97;;;;;;;23.16;50.68;99058.03;5044237;28;20020;-83
2023/06/03 06:50:55;;;;;;;8.80;5.85;;;;;;;23.48;50.52;99062.44;5013600;28;20017;-84
2023/06/03 06:53:22;;;;;;;13.55;5.93;;;;;;;23.68;50.02;99062.50;5013628;28;20017;-85
2023/06/03 06:55:50;;;;;;;12.65;7.10;;;;;;;23.55;49.63;99062.34;5014807;28;20072;-84
2023/06/03 06:58:17;;;;;;;10.05;7.30;;;;;;;23.31;50.22;99059.47;5025284;28;20518;-84
2023/06/03 07:00:43;;;;;;;9.57;6.35;;;;;;;23.97;52.64;99062.78;5033214;28;20029;-84
2023/06/03 07:03:10;;;;;;;76.65;20.30;;;;;;;25.14;52.84;99060.41;5051141;28;20029;-84
2023/06/03 07:05:35;;;;;;;110.57;33.67;;;;;;;26.10;58.57;99066.16;5032263;28;20017;-85
2023/06/03 07:08:01;;;;;;;95.47;27.60;;;;;;;26.40;74.33;99056.31;5033173;28;20036;-85
2023/06/03 07:10:27;;;;;;;48.00;13.60;;;;;;;26.44;50.67;99071.34;5033718;28;20063;-88
2023/06/03 07:12:53;;;;;;;24.77;9.70;;;;;;;25.83;47.95;99073.84;5033426;28;20444;-86
2023/06/03 07:15:20;;;;;;;98.18;26.80;;;;;;;26.55;66.62;99067.38;5051307;28;20113;-85
2023/06/03 07:18:03;;;;;;;8.55;5.90;;;;;;;26.38;43.03;99073.16;5041446;28;20029;-85
2023/06/03 07:20:33;;;;;;;10.75;5.78;;;;;;;24.71;45.48;99082.97;5032763;28;20040;-85
2023/06/03 07:22:58;;;;;;;11.63;6.68;;;;;;;24.12;47.85;99082.53;5031130;28;20029;-85
2023/06/03 07:25:46;;;;;;;11.80;5.80;;;;;;;24.54;47.61;99080.06;5032724;28;20470;-84
2023/06/03 07:28:14;;;;;;;8.50;6.07;;;;;;;24.02;48.22;99075.75;5030930;28;20036;-84
2023/06/03 07:30:41;;;;;;;13.70;6.13;;;;;;;24.63;48.03;99082.31;5029707;28;20124;-84
2023/06/03 07:33:20;;;;;;;9.65;5.50;;;;;;;25.02;46.48;99081.91;5052239;28;20100;-84
2023/06/03 07:35:46;;;;;;;10.25;6.38;;;;;;;24.85;46.52;99081.06;5070221;28;20075;-83
2023/06/03 07:38:32;;;;;;;13.60;6.22;;;;;;;24.51;46.69;99069.53;5038718;28;20031;-84
2023/06/03 07:40:58;;;;;;;9.02;5.85;;;;;;;24.56;45.61;99087.38;5032386;28;20075;-85
2023/06/03 07:43:23;;;;;;;11.68;5.75;;;;;;;24.24;46.75;99087.59;5029913;28;20036;-84
2023/06/03 07:45:49;;;;;;;9.63;5.43;;;;;;;23.93;46.84;99086.94;5030975;28;20522;-84
2023/06/03 07:48:15;;;;;;;7.40;5.68;;;;;;;23.83;46.85;99088.75;5032112;28;20032;-84
2023/06/03 07:50:40;;;;;;;6.80;5.82;;;;;;;24.19;47.47;99088.13;5032244;28;20116;-85
2023/06/03 07:53:06;;;;;;;8.70;5.65;;;;;;;24.55;46.90;99092.28;5032286;28;20048;-84
2023/06/03 07:55:45;;;;;;;21.83;6.15;;;;;;;24.84;46.53;99088.03;5027005;28;20236;-85
2023/06/03 07:58:11;;;;;;;7.80;5.60;;;;;;;25.06;45.50;99080.59;5044083;28;20095;-85
2023/06/03 08:00:43;;;;;;;8.73;5.70;;;;;;;25.35;44.92;99085.63;5028771;28;20513;-85
2023/06/03 08:03:11;;;;;;;13.43;5.80;;;;;;;25.58;44.76;99089.59;5021757;28;20058;-84
2023/06/03 08:05:38;;;;;;;7.70;5.60;;;;;;;25.58;44.60;99091.66;5015270;28;20057;-85
2023/06/03 08:08:05;;;;;;;18.95;6.80;;;;;;;25.67;44.58;99082.41;5016111;28;20040;-85
2023/06/03 08:10:32;;;;;;;10.32;5.50;;;;;;;25.69;43.93;99077.03;5032334;28;20017;-86
2023/06/03 08:12:57;;;;;;;8.55;5.32;;;;;;;25.61;43.77;99070.72;5031696;28;20082;-85
2023/06/03 08:15:31;;;;;;;9.00;6.20;;;;;;;25.47;44.40;99074.72;5049640;28;20029;-85
2023/06/03 08:17:57;;;;;;;8.65;5.43;;;;;;;24.75;44.83;99082.91;5023249;28;20033;-85
2023/06/03 08:20:26;;;;;;;10.15;5.82;;;;;;;25.21;43.23;99052.44;5024138;28;20041;-84
2023/06/03 08:22:53;;;;;;;6.07;5.13;;;;;;;25.88;42.67;99067.53;5024009;28;20539;-85
2023/06/03 08:25:18;;;;;;;12.88;5.45;;;;;;;25.93;42.77;99066.97;5011401;28;20040;-85
2023/06/03 08:27:44;;;;;;;11.80;6.28;;;;;;;26.48;41.53;99071.22;5016663;28;20127;-84
2023/06/03 08:30:14;;;;;;;11.98;6.53;;;;;;;26.35;41.19;99072.00;5031555;28;20025;-85
2023/06/03 08:32:40;;;;;;;7.03;6.20;;;;;;;26.04;41.50;99060.97;5028060;28;20036;-85
2023/06/03 08:35:07;;;;;;;6.90;5.78;;;;;;;26.44;41.00;99059.06;5021610;28;20037;-85
2023/06/03 08:37:33;;;;;;;10.80;6.53;;;;;;;26.76;40.00;99058.09;5039113;28;20079;-84
2023/06/03 08:40:00;;;;;;;10.20;5.40;;;;;;;26.45;40.14;99064.34;5026156;28;20051;-84
2023/06/03 08:42:34;;;;;;;9.23;5.53;;;;;;;26.11;40.25;99059.97;5011863;28;20039;-85
2023/06/03 08:45:06;;;;;;;9.95;5.55;;;;;;;26.35;39.82;99068.34;5031681;28;20043;-85
2023/06/03 08:47:43;;;;;;;6.95;5.30;;;;;;;26.42;39.03;99073.84;5031238;28;20037;-85
2023/06/03 08:50:20;;;;;;;10.05;5.50;;;;;;;26.27;39.79;99064.06;5031124;28;20574;-85
2023/06/03 08:52:47;;;;;;;12.60;5.97;;;;;;;26.87;39.87;99065.59;5046026;28;20495;-85
2023/06/03 08:55:16;;;;;;;10.95;5.80;;;;;;;27.17;38.79;99054.84;5042538;28;20049;-85
2023/06/03 08:57:54;;;;;;;8.57;6.43;;;;;;;27.31;36.40;99062.97;5051254;28;20123;-85
2023/06/03 09:00:26;;;;;;;6.82;5.22;;;;;;;26.51;37.52;99069.53;5050827;28;20111;-85
2023/06/03 09:02:52;;;;;;;11.77;5.43;;;;;;;27.13;36.99;99072.16;5041039;28;20025;-85
2023/06/03 09:05:20;;;;;;;7.68;4.85;;;;;;;27.70;36.92;99065.00;5039992;28;20087;-85
2023/06/03 09:07:47;;;;;;;6.25;5.05;;;;;;;27.79;36.22;99050.72;5012430;28;20526;-85
2023/06/03 09:10:15;;;;;;;9.93;5.32;;;;;;;28.03;35.77;99068.31;5034746;28;20040;-85
2023/06/03 09:12:41;;;;;;;9.98;5.30;;;;;;;28.12;36.09;99058.19;5047707;28;20039;-85
2023/06/03 09:15:08;;;;;;;8.25;5.30;;;;;;;28.16;36.63;99068.28;5031096;28;20025;-85
2023/06/03 09:17:35;;;;;;;8.38;6.13;;;;;;;28.29;35.35;99061.69;5033676;28;20025;-85
2023/06/03 09:20:02;;;;;;;6.05;4.45;;;;;;;28.44;35.06;99059.09;5030698;28;20562;-86
2023/06/03 09:22:28;;;;;;;11.13;5.20;;;;;;;28.68;34.58;99064.38;5049330;28;20155;-86
2023/06/03 09:24:54;;;;;;;5.72;4.85;;;;;;;28.35;36.62;99042.56;5029373;28;20101;-85
2023/06/03 09:27:21;;;;;;;11.98;5.85;;;;;;;28.40;34.68;99058.41;5037995;28;20111;-85
2023/06/03 09:29:46;;;;;;;11.25;5.53;;;;;;;28.37;34.72;99059.34;5031120;28;20036;-86
2023/06/03 09:32:12;;;;;;;12.77;4.93;;;;;;;28.45;35.60;99032.72;5048304;28;20029;-86
2023/06/03 09:34:37;;;;;;;12.95;5.80;;;;;;;28.62;35.50;99043.22;5041222;28;20024;-86
2023/06/03 09:37:10;;;;;;;6.85;6.00;;;;;;;28.40;35.59;99059.22;5045352;28;20029;-87
2023/06/03 09:39:37;;;;;;;11.02;5.03;;;;;;;28.10;35.82;99055.75;5030733;28;20712;-86
2023/06/03 09:42:03;;;;;;;12.40;5.70;;;;;;;28.08;36.81;99054.66;5030889;28;20054;-86
2023/06/03 09:44:41;;;;;;;10.02;7.45;;;;;;;27.85;37.18;99060.34;5050357;28;20530;-85
2023/06/03 09:47:08;;;;;;;8.77;4.78;;;;;;;27.85;36.66;99051.72;5050982;28;20087;-85
2023/06/03 09:49:34;;;;;;;8.90;5.03;;;;;;;27.97;36.46;99055.03;5036714;28;20016;-85
2023/06/03 09:52:00;;;;;;;7.60;5.15;;;;;;;28.14;36.22;99064.25;5070902;28;20499;-84
2023/06/03 09:54:26;;;;;;;6.82;5.15;;;;;;;28.30;35.63;99061.25;5052572;28;20045;-84
2023/06/03 09:56:51;;;;;;;16.83;5.25;;;;;;;28.63;35.04;99059.19;5052802;28;20073;-85
2023/06/03 09:59:23;;;;;;;12.38;5.65;;;;;;;28.45;36.02;99066.44;5052647;28;20085;-85
2023/06/03 10:01:51;;;;;;;13.13;6.15;;;;;;;28.24;35.80;99071.72;5052877;28;20028;-85
2023/06/03 10:04:23;;;;;;;9.13;5.18;;;;;;;28.26;35.47;99065.53;5052459;28;20063;-84
2023/06/03 10:07:11;;;;;;;9.77;5.80;;;;;;;28.23;36.29;99070.13;5029445;28;20052;-85
2023/06/03 10:09:38;;;;;;;9.25;5.55;;;;;;;28.34;35.80;99060.31;5012055;28;20049;-84
2023/06/03 10:12:04;;;;;;;8.52;4.97;;;;;;;28.33;36.14;99062.38;5013002;28;20032;-85
2023/06/03 10:14:29;;;;;;;6.82;5.25;;;;;;;28.12;36.06;99067.63;5018677;28;20032;-85
2023/06/03 10:17:06;;;;;;;8.38;6.40;;;;;;;28.16;36.03;99068.28;5029568;28;20060;-85
2023/06/03 10:19:37;;;;;;;10.40;5.90;;;;;;;28.21;35.44;99060.34;5045711;28;20033;-85
2023/06/03 10:22:04;;;;;;;7.38;5.18;;;;;;;28.08;35.64;99058.31;5050990;28;20494;-86
2023/06/03 10:24:35;;;;;;;10.65;5.13;;;;;;;28.22;35.82;99065.66;5058612;28;20498;-86
2023/06/03 10:27:01;;;;;;;9.20;5.25;;;;;;;28.30;35.63;99071.94;5048748;28;20025;-85
2023/06/03 10:29:29;;;;;;;6.82;4.88;;;;;;;28.27;37.19;99061.38;5034170;28;20029;-84
2023/06/03 10:31:57;;;;;;;23.20;16.27;;;;;;;28.07;37.32;99070.28;5044800;28;20029;-85
2023/06/03 10:34:23;;;;;;;29.45;23.08;;;;;;;28.12;37.99;99070.50;5036226;28;20025;-85
2023/06/03 10:36:56;;;;;;;11.43;6.50;;;;;;;28.16;37.55;99070.34;5016684;28;20087;-85
2023/06/03 10:39:24;;;;;;;7.30;4.90;;;;;;;28.26;36.23;99071.28;5028623;28;20021;-85
2023/06/03 10:41:52;;;;;;;18.75;7.82;;;;;;;28.24;36.53;99063.09;5036434;28;20124;-85
2023/06/03 10:44:19;;;;;;;17.75;9.77;;;;;;;28.07;37.31;99061.66;5049063;28;20029;-85
2023/06/03 10:47:22;;;;;;;10.02;5.28;;;;;;;28.29;36.23;99055.94;5035529;28;20025;-85
2023/06/03 10:49:51;;;;;;;12.18;6.00;;;;;;;28.15;36.86;99060.94;5007068;28;20422;-85
2023/06/03 10:52:48;;;;;;;7.72;5.50;;;;;;;28.28;36.45;99058.00;5031912;28;20030;-85
2023/06/03 10:55:25;;;;;;;21.38;11.88;;;;;;;28.23;36.60;99058.63;5035746;28;20044;-86
2023/06/03 10:58:23;;;;;;;13.82;11.20;;;;;;;28.09;37.59;99057.03;5035219;28;20457;-85
2023/06/03 11:00:56;;;;;;;24.10;17.13;;;;;;;28.19;37.54;99045.66;5053688;28;20414;-85
2023/06/03 11:03:23;;;;;;;13.65;6.15;;;;;;;28.34;36.84;99054.56;5036082;28;20032;-86
2023/06/03 11:05:50;;;;;;;6.70;5.60;;;;;;;28.28;37.34;99037.09;5036459;28;20028;-86
2023/06/03 11:08:57;;;;;;;20.40;12.90;;;;;;;28.29;37.46;99058.81;5045685;28;20029;-86
2023/06/03 11:11:41;;;;;;;27.75;18.45;;;;;;;28.52;36.61;99071.13;5041078;28;20025;-85
2023/06/03 11:14:10;;;;;;;14.27;10.85;;;;;;;28.55;36.81;99075.94;5040440;28;20025;-86
2023/06/03 11:16:59;;;;;;;12.50;8.82;;;;;;;28.65;35.88;99068.97;5018369;28;20025;-85
2023/06/03 11:19:38;;;;;;;8.32;4.95;;;;;;;28.63;34.96;99071.53;5035056;28;20099;-85
2023/06/03 11:22:07;;;;;;;8.20;5.75;;;;;;;28.55;35.51;99082.50;5032226;28;20046;-86
2023/06/03 11:24:39;;;;;;;10.85;8.13;;;;;;;28.60;36.14;99069.59;5035188;28;20021;-85
2023/06/03 11:27:14;;;;;;;27.20;6.38;;;;;;;28.55;35.77;99079.63;5035069;28;20517;-85
2023/06/03 11:32:16;;;;;;;6.35;4.82;;;;;;;28.92;35.37;99064.66;5042734;28;20031;-85
2023/06/03 11:34:45;;;;;;;10.32;5.20;;;;;;;29.00;35.77;99083.25;5043563;28;20478;-85
2023/06/03 11:37:13;;;;;;;20.23;11.35;;;;;;;28.92;35.76;99081.16;5042039;28;20017;-85
2023/06/03 11:40:09;;;;;;;10.85;7.53;;;;;;;28.75;36.79;99081.34;5035175;28;20083;-85